Terminal Aerodrome Forecast
Issued by NWS Mt. Holly, NJ

Home | Current Version | Previous Version | Text Only | Print | Product List | Glossary On
Versions: 1 2 3 4 5 6 7 8 9 10 11 12 13 14 15 16 17 18 19 20 21 22 23 24
000
FTUS41 KPHI 042343
TAFACY
TAF
KACY 042343Z 0500/0524 07014KT P6SM BKN025
     FM050200 05010KT P6SM OVC010
      TEMPO 0509/0511 4SM BR BKN009
     FM051400 07012G20KT P6SM BKN020=

USA.gov is the U.S. government's official web portal to all federal, state and local government web resources and services.